createdAt,value
2022-08-27T00:02:06.408Z,18.39
2022-08-27T00:04:33.600Z,18.39
2022-08-27T00:07:03.734Z,18.38
2022-08-27T00:09:32.159Z,18.37
2022-08-27T00:11:59.820Z,18.35
2022-08-27T00:14:29.560Z,18.31
2022-08-27T00:16:57.726Z,18.30
2022-08-27T00:19:26.255Z,18.30
2022-08-27T00:21:53.456Z,18.25
2022-08-27T00:24:20.551Z,18.21
2022-08-27T00:26:47.858Z,18.20
2022-08-27T00:29:14.965Z,18.19
2022-08-27T00:31:42.169Z,18.20
2022-08-27T00:34:13.030Z,18.20
2022-08-27T00:36:41.568Z,18.21
2022-08-27T00:39:10.015Z,18.23
2022-08-27T00:41:39.623Z,18.27
2022-08-27T00:44:07.694Z,18.28
2022-08-27T00:46:57.610Z,18.28
2022-08-27T00:49:46.826Z,18.30
2022-08-27T00:52:35.367Z,18.33
2022-08-27T00:55:13.845Z,18.38
2022-08-27T00:57:43.818Z,18.41
2022-08-27T01:00:18.736Z,18.42
2022-08-27T01:02:47.729Z,18.45
2022-08-27T01:05:26.562Z,18.47
2022-08-27T01:08:11.443Z,18.48
2022-08-27T01:10:41.958Z,18.48
2022-08-27T01:13:13.318Z,18.46
2022-08-27T01:15:42.627Z,18.42
2022-08-27T01:18:13.932Z,18.37
2022-08-27T01:21:26.905Z,18.32
2022-08-27T01:24:05.144Z,18.31
2022-08-27T01:26:33.164Z,18.33
2022-08-27T01:29:01.752Z,18.29
2022-08-27T01:31:29.463Z,18.27
2022-08-27T01:34:02.341Z,18.26
2022-08-27T01:36:31.181Z,18.23
2022-08-27T01:38:59.049Z,18.24
2022-08-27T01:41:27.118Z,18.24
2022-08-27T01:43:54.704Z,18.25
2022-08-27T01:46:26.067Z,18.28
2022-08-27T01:48:54.882Z,18.26
2022-08-27T01:51:22.825Z,18.27
2022-08-27T01:53:49.995Z,18.27
2022-08-27T01:56:17.163Z,18.28
2022-08-27T01:58:45.052Z,18.22
2022-08-27T02:01:17.042Z,18.22
2022-08-27T02:03:47.481Z,18.22
2022-08-27T02:06:15.370Z,18.20
2022-08-27T02:08:42.398Z,18.18
2022-08-27T02:11:10.153Z,18.18
2022-08-27T02:13:37.740Z,18.19
2022-08-27T02:16:05.621Z,18.18
2022-08-27T02:18:34.980Z,18.20
2022-08-27T02:21:02.641Z,18.25
2022-08-27T02:23:29.736Z,18.29
2022-08-27T02:25:56.786Z,18.31
2022-08-27T02:28:23.836Z,18.30
2022-08-27T02:30:50.939Z,18.30
2022-08-27T02:33:18.144Z,18.30
2022-08-27T02:35:45.328Z,18.27
2022-08-27T02:38:14.268Z,18.27
2022-08-27T02:40:41.812Z,18.27
2022-08-27T02:43:09.779Z,18.28
2022-08-27T02:45:43.282Z,18.27
2022-08-27T02:48:11.899Z,18.25
2022-08-27T02:50:39.298Z,18.28
2022-08-27T02:53:07.588Z,18.36
2022-08-27T02:55:35.639Z,18.42
2022-08-27T02:58:05.241Z,18.42
2022-08-27T03:00:32.879Z,18.44
2022-08-27T03:03:01.114Z,18.41
2022-08-27T03:05:29.069Z,18.38
2022-08-27T03:07:56.039Z,18.37
2022-08-27T03:10:23.223Z,18.41
2022-08-27T03:12:51.066Z,18.40
2022-08-27T03:15:19.801Z,18.42
2022-08-27T03:18:05.999Z,18.42
2022-08-27T03:20:34.206Z,18.44
2022-08-27T03:23:01.378Z,18.44
2022-08-27T03:25:29.005Z,18.44
2022-08-27T03:27:56.145Z,18.44
2022-08-27T03:30:24.679Z,18.44
2022-08-27T03:32:52.177Z,18.45
2022-08-27T03:35:21.308Z,18.46
2022-08-27T03:37:49.449Z,18.47
2022-08-27T03:40:18.941Z,18.50
2022-08-27T03:42:46.127Z,18.51
2022-08-27T03:45:13.759Z,18.51
2022-08-27T03:47:41.016Z,18.51
2022-08-27T03:50:09.953Z,18.49
2022-08-27T03:52:38.834Z,18.50
2022-08-27T03:55:09.604Z,18.50
2022-08-27T03:57:37.708Z,18.52
2022-08-27T04:00:14.213Z,18.44
2022-08-27T04:02:44.282Z,18.37
2022-08-27T04:05:14.679Z,18.38
2022-08-27T04:07:44.295Z,18.33
2022-08-27T04:10:15.510Z,18.36
2022-08-27T04:12:44.701Z,18.29
2022-08-27T04:15:13.543Z,18.30
2022-08-27T04:17:41.583Z,18.27
2022-08-27T04:20:33.961Z,18.26
2022-08-27T04:22:59.269Z,18.29
2022-08-27T04:25:26.390Z,18.29
2022-08-27T04:27:54.036Z,18.31
2022-08-27T04:30:21.270Z,18.30
2022-08-27T04:32:48.557Z,18.30
2022-08-27T04:35:15.679Z,18.30
2022-08-27T04:37:43.366Z,18.28
2022-08-27T04:40:12.524Z,18.28
2022-08-27T04:42:39.677Z,18.28
2022-08-27T04:45:07.965Z,18.28
2022-08-27T04:47:36.892Z,18.29
2022-08-27T04:50:06.445Z,18.35
2022-08-27T04:52:34.926Z,18.30
2022-08-27T04:55:09.313Z,18.33
2022-08-27T04:57:38.146Z,18.32
2022-08-27T05:00:08.210Z,18.35
2022-08-27T05:02:35.279Z,18.39
2022-08-27T05:05:02.442Z,18.40
2022-08-27T05:07:29.482Z,18.31
2022-08-27T05:09:56.659Z,18.36
2022-08-27T05:12:24.237Z,18.34
2022-08-27T05:14:51.288Z,18.30
2022-08-27T05:17:18.329Z,18.33
2022-08-27T05:19:45.407Z,18.35
2022-08-27T05:22:12.581Z,18.32
2022-08-27T05:24:39.684Z,18.31
2022-08-27T05:27:06.774Z,18.31
2022-08-27T05:29:36.900Z,18.38
2022-08-27T05:32:05.020Z,18.39
2022-08-27T05:34:32.291Z,18.38
2022-08-27T05:36:59.399Z,18.43
2022-08-27T05:39:26.511Z,18.38
2022-08-27T05:41:57.838Z,18.40
2022-08-27T05:44:41.658Z,18.45
2022-08-27T05:47:10.335Z,18.47
2022-08-27T05:49:38.069Z,18.50
2022-08-27T05:52:11.701Z,18.49
2022-08-27T05:54:40.314Z,18.50
2022-08-27T05:57:07.814Z,18.59
2022-08-27T05:59:54.519Z,18.55
2022-08-27T06:02:21.953Z,18.54
2022-08-27T06:04:49.453Z,18.60
2022-08-27T06:07:17.162Z,18.65
2022-08-27T06:09:44.276Z,18.70
2022-08-27T06:12:15.535Z,18.77
2022-08-27T06:14:42.645Z,18.80
2022-08-27T06:17:09.762Z,18.84
2022-08-27T06:19:36.887Z,18.86
2022-08-27T06:22:10.407Z,18.89
2022-08-27T06:24:42.012Z,18.94
2022-08-27T06:27:15.437Z,18.97
2022-08-27T06:29:45.219Z,18.97
2022-08-27T06:32:15.019Z,19.03
2022-08-27T06:34:42.674Z,19.04
2022-08-27T06:37:10.044Z,19.03
2022-08-27T06:39:39.829Z,18.97
2022-08-27T06:42:15.709Z,18.97
2022-08-27T06:44:42.993Z,18.97
2022-08-27T06:47:11.795Z,19.03
2022-08-27T06:49:43.852Z,19.01
2022-08-27T06:52:14.430Z,19.02
2022-08-27T06:54:41.663Z,19.08
2022-08-27T06:57:08.971Z,19.10
2022-08-27T06:59:36.396Z,19.14
2022-08-27T07:02:05.940Z,19.10
2022-08-27T07:04:33.593Z,19.07
2022-08-27T07:07:05.004Z,19.02
2022-08-27T07:09:34.970Z,19.04
2022-08-27T07:12:03.146Z,19.05
2022-08-27T07:14:37.102Z,19.06
2022-08-27T07:17:10.815Z,19.10
2022-08-27T07:19:41.212Z,19.11
2022-08-27T07:22:09.556Z,19.11
2022-08-27T07:24:38.216Z,19.14
2022-08-27T07:27:06.570Z,19.14
2022-08-27T07:29:33.830Z,19.11
2022-08-27T07:32:00.905Z,19.05
2022-08-27T07:34:28.248Z,19.04
2022-08-27T07:36:55.633Z,19.05
2022-08-27T07:39:23.786Z,19.00
2022-08-27T07:42:10.759Z,19.02
2022-08-27T07:44:38.140Z,19.04
2022-08-27T07:47:05.323Z,19.05
2022-08-27T07:49:35.096Z,19.08
2022-08-27T07:52:04.117Z,19.23
2022-08-27T07:54:31.461Z,19.22
2022-08-27T07:56:59.421Z,19.23
2022-08-27T07:59:27.743Z,19.30
2022-08-27T08:01:57.147Z,19.28
2022-08-27T08:04:26.752Z,19.28
2022-08-27T08:06:55.946Z,19.32
2022-08-27T08:09:25.225Z,19.35
2022-08-27T08:11:54.639Z,19.40
2022-08-27T08:14:22.465Z,19.48
2022-08-27T08:16:49.702Z,19.49
2022-08-27T08:19:17.314Z,19.49
2022-08-27T08:21:44.411Z,19.58
2022-08-27T08:24:11.600Z,19.70
2022-08-27T08:26:38.806Z,19.89
2022-08-27T08:29:05.936Z,20.11
2022-08-27T08:31:33.485Z,20.33
2022-08-27T08:34:01.246Z,20.47
2022-08-27T08:36:28.614Z,20.43
2022-08-27T08:38:56.441Z,20.51
2022-08-27T08:41:48.388Z,20.44
2022-08-27T08:44:38.854Z,20.27
2022-08-27T08:47:27.932Z,20.17
2022-08-27T08:50:26.109Z,20.16
2022-08-27T08:53:20.175Z,20.21
2022-08-27T08:56:05.591Z,20.17
2022-08-27T08:59:14.637Z,20.11
2022-08-27T09:01:44.458Z,20.01
2022-08-27T09:04:13.375Z,20.03
2022-08-27T09:07:11.987Z,20.16
2022-08-27T09:10:13.439Z,20.26
2022-08-27T09:12:41.622Z,20.30
2022-08-27T09:15:23.587Z,20.29
2022-08-27T09:17:51.375Z,20.31
2022-08-27T09:20:25.701Z,20.29
2022-08-27T09:23:43.833Z,20.65
2022-08-27T09:29:20.322Z,20.73
2022-08-27T09:32:08.798Z,20.81
2022-08-27T09:34:42.632Z,20.89
2022-08-27T09:37:38.877Z,21.06
2022-08-27T09:40:28.022Z,21.17
2022-08-27T09:43:07.463Z,21.11
2022-08-27T09:45:35.884Z,21.22
2022-08-27T09:48:10.224Z,21.37
2022-08-27T09:50:54.402Z,21.41
2022-08-27T09:53:36.557Z,21.58
2022-08-27T09:56:10.101Z,21.61
2022-08-27T09:58:43.360Z,21.37
2022-08-27T10:01:24.307Z,21.18
2022-08-27T10:04:07.654Z,21.08
2022-08-27T10:06:35.920Z,20.98
2022-08-27T10:09:38.291Z,20.94
2022-08-27T10:12:50.445Z,20.92
2022-08-27T10:15:18.599Z,20.90
2022-08-27T10:18:17.806Z,20.89
2022-08-27T10:21:22.798Z,20.82
2022-08-27T10:24:10.430Z,20.84
2022-08-27T10:27:18.146Z,20.81
2022-08-27T10:30:01.394Z,20.84
2022-08-27T10:33:23.805Z,20.88
2022-08-27T10:36:16.899Z,21.02
2022-08-27T10:39:07.702Z,21.31
2022-08-27T10:41:46.637Z,21.53
2022-08-27T10:44:48.658Z,21.45
2022-08-27T10:47:50.034Z,21.40
2022-08-27T10:50:59.906Z,21.37
2022-08-27T10:53:59.796Z,21.41
2022-08-27T10:56:40.599Z,21.39
2022-08-27T10:59:29.220Z,21.35
2022-08-27T11:02:34.622Z,21.44
2022-08-27T11:05:23.536Z,21.53
2022-08-27T11:08:14.149Z,21.57
2022-08-27T11:10:57.065Z,21.50
2022-08-27T11:13:34.141Z,21.43
2022-08-27T11:16:35.875Z,21.31
2022-08-27T11:19:42.100Z,21.24
2022-08-27T11:22:26.237Z,21.24
2022-08-27T11:25:44.462Z,21.26
2022-08-27T11:28:14.868Z,21.23
2022-08-27T11:31:26.061Z,21.15
2022-08-27T11:34:43.491Z,21.19
2022-08-27T11:37:45.434Z,21.22
2022-08-27T11:40:42.783Z,21.28
2022-08-27T11:43:22.554Z,21.21
2022-08-27T11:46:08.689Z,21.23
2022-08-27T11:48:44.280Z,21.22
2022-08-27T11:51:33.075Z,21.24
2022-08-27T11:54:24.056Z,21.33
2022-08-27T11:56:52.235Z,21.37
2022-08-27T11:59:28.301Z,21.42
2022-08-27T12:02:20.640Z,21.44
2022-08-27T12:04:49.629Z,21.55
2022-08-27T12:07:21.888Z,21.67
2022-08-27T12:10:29.441Z,21.78
2022-08-27T12:13:34.548Z,21.90
2022-08-27T12:16:41.806Z,22.11
2022-08-27T12:19:34.503Z,22.21
2022-08-27T12:23:23.097Z,22.12
2022-08-27T12:26:21.167Z,22.07
2022-08-27T12:28:48.348Z,22.10
2022-08-27T12:31:23.710Z,22.08
2022-08-27T12:33:54.940Z,22.10
2022-08-27T12:36:28.600Z,21.95
2022-08-27T12:39:00.072Z,21.82
2022-08-27T12:41:43.559Z,21.77
2022-08-27T12:44:33.608Z,21.82
2022-08-27T12:47:16.277Z,21.87
2022-08-27T12:49:57.629Z,22.05
2022-08-27T12:53:04.505Z,22.21
2022-08-27T12:56:02.149Z,22.40
2022-08-27T12:59:21.376Z,22.53
2022-08-27T13:02:53.854Z,22.66
2022-08-27T13:05:24.834Z,22.96
2022-08-27T13:07:54.765Z,23.24
2022-08-27T13:10:32.337Z,23.51
2022-08-27T13:13:18.748Z,23.80
2022-08-27T13:16:01.265Z,24.03
2022-08-27T13:18:29.991Z,24.06
2022-08-27T13:21:13.782Z,23.85
2022-08-27T13:23:57.541Z,23.75
2022-08-27T13:26:32.267Z,23.61
2022-08-27T13:29:03.739Z,23.70
2022-08-27T13:31:34.541Z,24.06
2022-08-27T13:34:07.146Z,24.30
2022-08-27T13:42:05.231Z,23.73
2022-08-27T13:44:39.757Z,23.88
2022-08-27T13:47:23.166Z,24.11
2022-08-27T13:50:01.347Z,24.28
2022-08-27T13:52:56.998Z,24.02
2022-08-27T13:55:24.587Z,24.03
2022-08-27T13:57:52.612Z,24.38
2022-08-27T14:00:33.983Z,24.65
2022-08-27T14:03:02.405Z,24.79
2022-08-27T14:05:36.904Z,24.93
2022-08-27T14:08:19.916Z,24.93
2022-08-27T14:11:04.084Z,24.77
2022-08-27T14:13:45.618Z,24.20
2022-08-27T14:16:30.430Z,23.85
2022-08-27T14:19:14.040Z,23.47
2022-08-27T14:21:46.224Z,23.25
2022-08-27T14:24:13.853Z,23.04
2022-08-27T14:26:40.872Z,22.92
2022-08-27T14:29:11.737Z,22.97
2022-08-27T14:31:39.590Z,22.91
2022-08-27T14:34:08.482Z,22.89
2022-08-27T14:36:41.974Z,22.91
2022-08-27T14:39:13.010Z,23.01
2022-08-27T14:41:40.453Z,23.08
2022-08-27T14:44:07.668Z,23.15
2022-08-27T14:46:43.014Z,23.05
2022-08-27T14:49:31.441Z,23.05
2022-08-27T14:51:58.897Z,23.11
2022-08-27T14:54:29.071Z,22.96
2022-08-27T14:57:03.096Z,22.85
2022-08-27T14:59:31.983Z,22.71
2022-08-27T15:02:08.207Z,22.84
2022-08-27T15:04:35.418Z,22.65
2022-08-27T15:07:04.527Z,22.53
2022-08-27T15:09:31.626Z,22.43
2022-08-27T15:11:59.851Z,22.30
2022-08-27T15:14:36.232Z,22.24
2022-08-27T15:17:11.015Z,22.21
2022-08-27T15:19:54.250Z,22.19
2022-08-27T15:22:31.347Z,22.13
2022-08-27T15:25:00.100Z,22.07
2022-08-27T15:27:38.491Z,22.03
2022-08-27T15:30:14.183Z,21.95
2022-08-27T15:32:48.060Z,21.79
2022-08-27T15:35:26.365Z,21.83
2022-08-27T15:37:56.436Z,21.78
2022-08-27T15:40:28.311Z,21.72
2022-08-27T15:43:06.358Z,21.66
2022-08-27T15:45:33.736Z,21.70
2022-08-27T15:48:02.042Z,21.65
2022-08-27T15:50:32.366Z,21.82
2022-08-27T15:53:07.028Z,21.68
2022-08-27T15:55:42.461Z,21.69
2022-08-27T15:58:11.096Z,21.63
2022-08-27T16:00:42.054Z,21.54
2022-08-27T16:03:16.373Z,21.57
2022-08-27T16:05:47.261Z,21.55
2022-08-27T16:08:14.968Z,21.57
2022-08-27T16:10:41.896Z,21.57
2022-08-27T16:13:08.977Z,21.60
2022-08-27T16:15:40.056Z,21.66
2022-08-27T16:18:09.866Z,21.75
2022-08-27T16:20:37.447Z,21.65
2022-08-27T16:23:05.143Z,21.60
2022-08-27T16:25:32.195Z,21.71
2022-08-27T16:28:01.067Z,21.61
2022-08-27T16:30:29.910Z,21.40
2022-08-27T16:32:57.912Z,21.40
2022-08-27T16:35:25.225Z,21.43
2022-08-27T16:37:52.598Z,21.44
2022-08-27T16:40:19.929Z,21.40
2022-08-27T16:42:52.165Z,21.36
2022-08-27T16:45:23.810Z,21.38
2022-08-27T16:48:10.170Z,21.28
2022-08-27T16:50:39.934Z,21.17
2022-08-27T16:53:15.337Z,21.17
2022-08-27T16:55:46.063Z,21.08
2022-08-27T16:58:25.617Z,21.00
2022-08-27T17:01:02.830Z,20.92
2022-08-27T17:03:31.589Z,21.04
2022-08-27T17:05:59.048Z,21.02
2022-08-27T17:08:27.715Z,20.91
2022-08-27T17:10:57.591Z,20.78
2022-08-27T17:13:32.836Z,20.74
2022-08-27T17:16:01.786Z,20.64
2022-08-27T17:18:29.574Z,20.62
2022-08-27T17:21:00.417Z,20.68
2022-08-27T17:23:49.272Z,20.46
2022-08-27T17:26:19.715Z,20.29
2022-08-27T17:28:48.313Z,20.20
2022-08-27T17:31:32.213Z,20.26
2022-08-27T17:34:01.945Z,20.18
2022-08-27T17:36:31.783Z,20.13
2022-08-27T17:39:00.731Z,20.17
2022-08-27T17:41:38.900Z,19.98
2022-08-27T17:44:31.724Z,19.99
2022-08-27T17:47:07.170Z,20.02
2022-08-27T17:49:35.165Z,19.93
2022-08-27T17:52:12.596Z,19.98
2022-08-27T17:55:01.368Z,19.82
2022-08-27T17:57:41.035Z,19.79
2022-08-27T18:00:13.246Z,19.80
2022-08-27T18:02:49.810Z,19.76
2022-08-27T18:05:22.815Z,19.72
2022-08-27T18:07:52.246Z,19.75
2022-08-27T18:10:26.090Z,19.75
2022-08-27T18:12:56.145Z,19.77
2022-08-27T18:15:36.136Z,19.70
2022-08-27T18:18:07.711Z,19.73
2022-08-27T18:20:37.545Z,19.71
2022-08-27T18:23:11.159Z,19.69
2022-08-27T18:25:41.179Z,19.72
2022-08-27T18:28:14.052Z,19.63
2022-08-27T18:30:45.774Z,19.54
2022-08-27T18:33:14.541Z,19.66
2022-08-27T18:35:42.978Z,19.63
2022-08-27T18:38:10.446Z,19.52
2022-08-27T18:40:51.853Z,19.57
2022-08-27T18:43:29.730Z,19.55
2022-08-27T18:45:57.172Z,19.56
2022-08-27T18:48:24.459Z,19.48
2022-08-27T18:50:58.854Z,19.53
2022-08-27T18:53:33.130Z,19.46
2022-08-27T18:56:01.669Z,19.44
2022-08-27T18:58:29.489Z,19.42
2022-08-27T19:01:02.112Z,19.43
2022-08-27T19:03:43.988Z,19.43
2022-08-27T19:06:12.259Z,19.52
2022-08-27T19:08:41.171Z,19.41
2022-08-27T19:11:09.242Z,19.33
2022-08-27T19:13:37.372Z,19.36
2022-08-27T19:16:13.941Z,19.31
2022-08-27T19:18:43.003Z,19.25
2022-08-27T19:21:10.628Z,19.25
2022-08-27T19:23:38.652Z,19.39
2022-08-27T19:26:18.409Z,19.25
2022-08-27T19:28:46.030Z,19.36
2022-08-27T19:31:15.621Z,19.18
2022-08-27T19:33:44.943Z,19.17
2022-08-27T19:36:18.713Z,19.09
2022-08-27T19:38:51.252Z,19.00
2022-08-27T19:41:21.450Z,19.02
2022-08-27T19:43:50.914Z,19.09
2022-08-27T19:46:23.987Z,19.07
2022-08-27T19:48:51.798Z,19.14
2022-08-27T19:51:19.267Z,19.07
2022-08-27T19:53:46.326Z,19.06
2022-08-27T19:56:15.195Z,19.07
2022-08-27T19:58:43.940Z,19.05
2022-08-27T20:01:12.688Z,19.19
2022-08-27T20:03:40.541Z,19.22
2022-08-27T20:06:07.709Z,19.19
2022-08-27T20:08:34.911Z,19.12
2022-08-27T20:11:01.982Z,19.07
2022-08-27T20:13:33.087Z,19.08
2022-08-27T20:16:01.345Z,19.01
2022-08-27T20:18:28.850Z,18.94
2022-08-27T20:20:56.313Z,19.01
2022-08-27T20:23:23.861Z,19.06
2022-08-27T20:25:56.693Z,19.04
2022-08-27T20:28:43.338Z,18.97
2022-08-27T20:31:10.831Z,19.08
2022-08-27T20:33:38.379Z,19.08
2022-08-27T20:36:08.652Z,19.24
2022-08-27T20:38:36.297Z,19.11
2022-08-27T20:41:06.040Z,19.01
2022-08-27T20:43:35.672Z,19.04
2022-08-27T20:46:04.226Z,19.03
2022-08-27T20:48:31.809Z,18.95
2022-08-27T20:50:58.983Z,18.90
2022-08-27T20:53:26.091Z,18.95
2022-08-27T20:55:56.756Z,18.99
2022-08-27T20:58:44.396Z,19.15
2022-08-27T21:01:12.816Z,18.92
2022-08-27T21:03:39.919Z,18.89
2022-08-27T21:06:07.669Z,18.85
2022-08-27T21:08:36.869Z,18.90
2022-08-27T21:11:12.263Z,18.91
2022-08-27T21:13:55.321Z,19.01
2022-08-27T21:16:25.515Z,18.96
2022-08-27T21:18:53.842Z,18.95
2022-08-27T21:21:21.547Z,18.86
2022-08-27T21:23:49.165Z,18.88
2022-08-27T21:26:16.311Z,18.87
2022-08-27T21:28:44.387Z,18.92
2022-08-27T21:31:11.652Z,18.86
2022-08-27T21:33:39.508Z,18.92
2022-08-27T21:36:11.810Z,18.86
2022-08-27T21:38:40.059Z,18.92
2022-08-27T21:41:07.789Z,19.04
2022-08-27T21:43:34.940Z,19.06
2022-08-27T21:46:01.992Z,19.01
2022-08-27T21:48:29.573Z,18.87
2022-08-27T21:50:56.682Z,18.72
2022-08-27T21:53:24.072Z,18.82
2022-08-27T21:55:54.394Z,18.78
2022-08-27T21:58:26.197Z,18.68
2022-08-27T22:00:54.018Z,18.64
2022-08-27T22:03:25.549Z,18.68
2022-08-27T22:05:53.501Z,18.60
2022-08-27T22:08:23.535Z,18.72
2022-08-27T22:10:57.986Z,18.67
2022-08-27T22:13:26.206Z,18.59
2022-08-27T22:15:53.383Z,18.56
2022-08-27T22:18:23.029Z,18.48
2022-08-27T22:20:53.335Z,18.45
2022-08-27T22:23:22.155Z,18.39
2022-08-27T22:25:49.204Z,18.43
2022-08-27T22:28:17.847Z,18.55
2022-08-27T22:30:46.298Z,18.44
2022-08-27T22:33:13.995Z,18.36
2022-08-27T22:35:41.696Z,18.41
2022-08-27T22:38:11.160Z,18.42
2022-08-27T22:40:39.570Z,18.36
2022-08-27T22:43:07.814Z,18.32
2022-08-27T22:45:34.817Z,18.36
2022-08-27T22:48:02.133Z,18.28
2022-08-27T22:50:29.162Z,18.29
2022-08-27T22:52:56.406Z,18.23
2022-08-27T22:55:25.119Z,18.23
2022-08-27T22:57:56.370Z,18.19
2022-08-27T23:00:39.153Z,18.24
2022-08-27T23:03:11.477Z,18.17
2022-08-27T23:05:40.380Z,18.21
2022-08-27T23:08:12.293Z,18.23
2022-08-27T23:10:41.068Z,18.19
2022-08-27T23:13:09.912Z,18.16
2022-08-27T23:15:38.868Z,18.15
2022-08-27T23:18:07.120Z,18.26
2022-08-27T23:20:34.588Z,18.22
2022-08-27T23:23:02.688Z,18.26
2022-08-27T23:26:08.553Z,18.17
2022-08-27T23:28:35.657Z,18.25
2022-08-27T23:31:02.953Z,18.23
2022-08-27T23:33:30.026Z,18.20
2022-08-27T23:35:57.064Z,18.18
2022-08-27T23:38:24.054Z,18.17
2022-08-27T23:40:52.472Z,18.13
2022-08-27T23:43:20.610Z,18.13
2022-08-27T23:45:48.619Z,17.99
2022-08-27T23:48:15.982Z,17.87
2022-08-27T23:50:43.120Z,17.80
2022-08-27T23:53:11.961Z,17.72
2022-08-27T23:55:40.548Z,17.74
2022-08-27T23:58:09.528Z,17.74
